Time;durP1;ratioP1;P1;durP2;ratioP2;P2;SDS_P1;SDS_P2;PMS_P1;PMS_P2;Temp;Humidity;BMP_temperature;BMP_pressure;BME280_temperature;BME280_humidity;BME280_pressure;Samples;Min_cycle;Max_cycle;Signal;HPM_P1;HPM_P2
2022/05/06 00:01:27;;;;;;;3.90;3.80;;;11.00;99.90;;;;;;5072217;28;20181;-66
2022/05/06 00:03:53;;;;;;;4.00;3.90;;;10.90;99.90;;;;;;5059781;28;20228;-66
2022/05/06 00:06:20;;;;;;;3.80;3.70;;;10.90;99.90;;;;;;5050750;28;20174;-66
2022/05/06 00:08:46;;;;;;;3.40;3.30;;;10.80;99.90;;;;;;5060987;28;20206;-66
2022/05/06 00:11:11;;;;;;;3.70;3.60;;;10.80;99.90;;;;;;5065691;28;20580;-66
2022/05/06 00:13:37;;;;;;;4.17;4.00;;;10.80;99.90;;;;;;5051877;28;20170;-66
2022/05/06 00:16:05;;;;;;;3.63;3.53;;;10.80;99.90;;;;;;5054410;28;20182;-66
2022/05/06 00:18:32;;;;;;;3.80;3.60;;;10.90;99.90;;;;;;5071875;28;20541;-66
2022/05/06 00:20:57;;;;;;;4.27;4.07;;;10.90;99.90;;;;;;5068864;28;20178;-66
2022/05/06 00:23:23;;;;;;;3.90;3.80;;;10.80;99.90;;;;;;5051809;28;20182;-66
2022/05/06 00:25:49;;;;;;;4.50;4.30;;;10.70;99.90;;;;;;5050917;28;20183;-67
2022/05/06 00:28:15;;;;;;;4.43;4.13;;;10.70;99.90;;;;;;5071800;28;20605;-66
2022/05/06 00:30:41;;;;;;;4.07;3.90;;;10.60;99.90;;;;;;5071867;28;20324;-66
2022/05/06 00:33:09;;;;;;;6.30;5.93;;;10.60;99.90;;;;;;5052234;28;20171;-66
2022/05/06 00:35:38;;;;;;;4.53;4.33;;;10.60;99.90;;;;;;5049833;28;20257;-67
2022/05/06 00:38:04;;;;;;;4.40;4.20;;;10.50;99.90;;;;;;5069518;28;20210;-67
2022/05/06 00:40:30;;;;;;;4.33;4.13;;;10.60;99.90;;;;;;5070209;28;20174;-67
2022/05/06 00:42:56;;;;;;;3.70;3.60;;;10.60;99.90;;;;;;5054882;28;20662;-67
2022/05/06 00:45:22;;;;;;;4.43;4.23;;;10.70;99.90;;;;;;5051221;28;20636;-66
2022/05/06 00:47:49;;;;;;;4.83;4.63;;;10.80;99.90;;;;;;5066175;28;20201;-66
2022/05/06 00:50:16;;;;;;;3.73;3.60;;;10.90;99.90;;;;;;5071278;28;20284;-66
2022/05/06 00:52:42;;;;;;;3.90;3.80;;;11.00;99.90;;;;;;5069839;28;20166;-66
2022/05/06 00:55:08;;;;;;;4.80;4.50;;;11.00;99.90;;;;;;5062034;28;20194;-66
2022/05/06 00:57:35;;;;;;;3.90;3.80;;;11.10;99.90;;;;;;5051183;28;20643;-66
2022/05/06 01:00:18;;;;;;;3.70;3.60;;;11.10;99.90;;;;;;5054470;28;20228;-66
2022/05/06 01:02:44;;;;;;;4.73;4.53;;;11.10;99.90;;;;;;5071293;28;20209;-66
2022/05/06 01:05:12;;;;;;;3.57;3.47;;;11.10;99.90;;;;;;5070965;28;20559;-66
2022/05/06 01:07:38;;;;;;;4.10;3.90;;;11.10;99.90;;;;;;5071266;28;20217;-67
2022/05/06 01:10:04;;;;;;;5.13;4.93;;;11.10;99.90;;;;;;5070357;28;20209;-66
2022/05/06 01:12:30;;;;;;;4.10;4.00;;;11.10;99.90;;;;;;5070581;28;20703;-66
2022/05/06 01:14:56;;;;;;;3.90;3.80;;;11.10;99.90;;;;;;5053279;28;20258;-66
2022/05/06 01:17:22;;;;;;;3.77;3.67;;;11.10;99.90;;;;;;5069797;28;20178;-66
2022/05/06 01:19:48;;;;;;;4.10;3.90;;;11.00;99.90;;;;;;5068854;28;20257;-66
2022/05/06 01:22:14;;;;;;;4.40;4.20;;;10.90;99.90;;;;;;5050832;28;20666;-66
2022/05/06 01:24:40;;;;;;;3.83;3.73;;;10.90;99.90;;;;;;5052477;28;20179;-66
2022/05/06 01:27:14;;;;;;;4.00;3.90;;;10.80;99.90;;;;;;5069703;28;20658;-67
2022/05/06 01:29:43;;;;;;;4.77;4.57;;;10.70;99.90;;;;;;5085370;28;20259;-66
2022/05/06 01:32:10;;;;;;;4.03;3.93;;;10.70;99.90;;;;;;5049601;28;20225;-67
2022/05/06 01:34:40;;;;;;;3.90;3.80;;;10.60;99.90;;;;;;5051539;28;20571;-66
2022/05/06 01:37:08;;;;;;;5.70;5.37;;;10.60;99.90;;;;;;5070592;28;20587;-66
2022/05/06 01:39:35;;;;;;;4.63;4.43;;;10.50;99.90;;;;;;5069110;28;20218;-66
2022/05/06 01:42:06;;;;;;;4.80;4.60;;;10.40;99.90;;;;;;5030991;28;20225;-66
2022/05/06 01:44:37;;;;;;;4.40;4.20;;;10.40;99.90;;;;;;5031356;28;20175;-66
2022/05/06 01:47:08;;;;;;;4.47;4.27;;;10.40;99.90;;;;;;5070848;28;20277;-66
2022/05/06 01:49:35;;;;;;;4.60;4.40;;;10.40;99.90;;;;;;5050795;28;20214;-66
2022/05/06 01:52:01;;;;;;;4.40;4.20;;;10.30;99.90;;;;;;5051376;28;20175;-66
2022/05/06 01:54:27;;;;;;;4.10;4.00;;;10.30;99.90;;;;;;5072731;28;20178;-66
2022/05/06 01:56:53;;;;;;;3.87;3.77;;;10.20;99.90;;;;;;5054806;28;20187;-66
2022/05/06 01:59:18;;;;;;;4.53;4.33;;;10.20;99.90;;;;;;5070023;28;20284;-66
2022/05/06 02:01:44;;;;;;;4.57;4.37;;;10.10;99.90;;;;;;5070615;28;20202;-66
2022/05/06 02:06:54;;;;;;;6.13;5.83;;;10.10;99.90;;;;;;5073922;28;20719;-66
2022/05/06 02:09:20;;;;;;;5.07;4.87;;;10.00;99.90;;;;;;5072868;28;20272;-66
2022/05/06 02:11:45;;;;;;;5.27;5.07;;;10.00;99.90;;;;;;5056525;28;20257;-66
2022/05/06 02:14:11;;;;;;;5.73;5.53;;;10.00;99.90;;;;;;5052949;28;20648;-66
2022/05/06 02:16:37;;;;;;;5.23;5.03;;;10.00;99.90;;;;;;5070435;28;20762;-66
2022/05/06 02:19:04;;;;;;;4.70;4.50;;;10.00;99.90;;;;;;5073995;28;20402;-66
2022/05/06 02:21:31;;;;;;;4.50;4.30;;;9.90;99.90;;;;;;5058365;28;20209;-66
2022/05/06 02:23:57;;;;;;;5.40;5.00;;;9.90;99.90;;;;;;5059541;28;20259;-66
2022/05/06 02:26:22;;;;;;;4.30;4.10;;;9.80;99.90;;;;;;5057715;28;20304;-66
2022/05/06 02:28:48;;;;;;;4.43;4.23;;;9.80;99.90;;;;;;5058908;28;20217;-66
2022/05/06 02:33:58;;;;;;;4.50;4.30;;;9.70;99.90;;;;;;5067975;28;20652;-66
2022/05/06 02:36:23;;;;;;;4.50;4.30;;;9.70;99.90;;;;;;5066779;28;20182;-66
2022/05/06 02:38:49;;;;;;;3.90;3.80;;;9.70;99.90;;;;;;5069480;28;20215;-66
2022/05/06 02:41:15;;;;;;;4.43;4.23;;;9.60;99.90;;;;;;5053876;28;20206;-67
2022/05/06 02:43:41;;;;;;;3.70;3.60;;;9.60;99.90;;;;;;5056023;28;20588;-66
2022/05/06 02:46:06;;;;;;;4.20;4.07;;;9.50;99.90;;;;;;5059942;28;20187;-66
2022/05/06 02:48:32;;;;;;;5.50;5.30;;;9.50;99.90;;;;;;5054241;28;20202;-66
2022/05/06 02:50:58;;;;;;;4.47;4.27;;;9.40;99.90;;;;;;5074239;28;20209;-66
2022/05/06 02:53:23;;;;;;;5.23;5.03;;;9.30;99.90;;;;;;5072599;28;20521;-66
2022/05/06 02:55:49;;;;;;;5.27;5.07;;;9.20;99.90;;;;;;5062942;28;20174;-66
2022/05/06 02:58:15;;;;;;;5.20;5.00;;;9.20;99.90;;;;;;5073743;28;20204;-66
2022/05/06 03:00:40;;;;;;;5.17;4.97;;;9.20;99.90;;;;;;5056144;28;20674;-66
2022/05/06 03:03:06;;;;;;;4.77;4.57;;;9.20;99.90;;;;;;5052185;28;20664;-66
2022/05/06 03:05:32;;;;;;;4.93;4.73;;;9.20;99.90;;;;;;5061823;28;20573;-66
2022/05/06 03:07:58;;;;;;;4.27;4.10;;;9.20;99.90;;;;;;5053373;28;20199;-66
2022/05/06 03:10:24;;;;;;;4.70;4.50;;;9.20;99.90;;;;;;5054741;28;20573;-66
2022/05/06 03:12:50;;;;;;;4.53;4.33;;;9.10;99.90;;;;;;5052476;28;20179;-66
2022/05/06 03:15:16;;;;;;;4.40;4.20;;;9.10;99.90;;;;;;5059352;28;20550;-66
2022/05/06 03:17:41;;;;;;;4.30;4.10;;;9.10;99.90;;;;;;5056589;28;20193;-66
2022/05/06 03:20:08;;;;;;;4.10;4.00;;;9.00;99.90;;;;;;5073269;28;20657;-67
2022/05/06 03:22:45;;;;;;;4.70;4.50;;;9.00;99.90;;;;;;5071239;28;20204;-67
2022/05/06 03:25:13;;;;;;;5.23;4.97;;;9.00;99.90;;;;;;5056154;28;20201;-67
2022/05/06 03:30:24;;;;;;;4.37;4.17;;;9.00;99.90;;;;;;5053280;28;20344;-67
2022/05/06 03:32:50;;;;;;;4.90;4.70;;;8.90;99.90;;;;;;5055987;28;20190;-67
2022/05/06 03:35:16;;;;;;;4.40;4.20;;;8.80;99.90;;;;;;5068765;28;20663;-67
2022/05/06 03:37:42;;;;;;;5.17;4.97;;;8.80;99.90;;;;;;5073114;28;20567;-67
2022/05/06 03:40:08;;;;;;;4.97;4.77;;;8.70;99.90;;;;;;5071747;28;20182;-66
2022/05/06 03:42:34;;;;;;;5.17;4.97;;;8.70;99.90;;;;;;5053559;28;20206;-66
2022/05/06 03:45:02;;;;;;;6.00;5.70;;;8.70;99.90;;;;;;5052013;28;20221;-67
2022/05/06 03:47:28;;;;;;;5.37;5.17;;;8.60;99.90;;;;;;5072203;28;20232;-66
2022/05/06 03:52:38;;;;;;;4.57;4.37;;;8.60;99.90;;;;;;5051868;28;20611;-66
2022/05/06 03:55:04;;;;;;;5.07;4.87;;;8.70;99.90;;;;;;5052859;28;20209;-66
2022/05/06 03:57:30;;;;;;;5.70;5.50;;;8.70;99.90;;;;;;5072931;28;20174;-67
2022/05/06 03:59:56;;;;;;;5.50;5.30;;;8.80;99.90;;;;;;5069201;28;20193;-67
2022/05/06 04:02:21;;;;;;;5.20;5.00;;;8.80;99.90;;;;;;5053106;28;20175;-67
2022/05/06 04:04:47;;;;;;;5.87;5.67;;;8.80;99.90;;;;;;5054274;28;20213;-67
2022/05/06 04:07:14;;;;;;;5.90;5.60;;;8.80;99.90;;;;;;5072895;28;20174;-66
2022/05/06 04:09:41;;;;;;;6.40;6.13;;;8.90;99.90;;;;;;5072431;28;20237;-66
2022/05/06 04:12:09;;;;;;;4.53;4.33;;;8.90;99.90;;;;;;5033000;28;20560;-67
2022/05/06 04:14:35;;;;;;;5.87;5.57;;;8.90;99.90;;;;;;5031532;28;20590;-67
2022/05/06 04:17:03;;;;;;;5.47;5.17;;;8.90;99.90;;;;;;5071144;28;20235;-67
2022/05/06 04:19:29;;;;;;;6.37;5.97;;;8.80;99.90;;;;;;5072045;28;20297;-67
2022/05/06 04:24:39;;;;;;;5.10;4.90;;;8.80;99.90;;;;;;5053022;28;20615;-67
2022/05/06 04:27:06;;;;;;;5.90;5.60;;;8.80;99.90;;;;;;5031770;28;20214;-67
2022/05/06 04:29:32;;;;;;;7.57;7.17;;;8.90;99.90;;;;;;5032811;28;20203;-68
2022/05/06 04:31:58;;;;;;;5.57;5.30;;;8.90;99.90;;;;;;5068416;28;20178;-66
2022/05/06 04:34:24;;;;;;;4.73;4.53;;;9.00;99.90;;;;;;5072721;28;20646;-67
2022/05/06 04:36:49;;;;;;;5.03;4.83;;;9.10;99.90;;;;;;5053095;28;20269;-67
2022/05/06 04:39:16;;;;;;;4.80;4.60;;;9.20;99.90;;;;;;5050840;28;20226;-68
2022/05/06 04:41:45;;;;;;;5.80;5.50;;;9.30;99.90;;;;;;5068410;28;20182;-67
2022/05/06 04:44:11;;;;;;;5.33;5.13;;;9.30;99.90;;;;;;5072139;28;20550;-68
2022/05/06 04:46:39;;;;;;;4.97;4.77;;;9.50;99.90;;;;;;5054673;28;20183;-67
2022/05/06 04:49:05;;;;;;;4.30;4.10;;;9.60;99.90;;;;;;5050779;28;20673;-68
2022/05/06 04:51:30;;;;;;;6.00;5.80;;;9.70;99.90;;;;;;5059525;28;20668;-68
2022/05/06 04:53:56;;;;;;;5.43;5.23;;;9.80;99.90;;;;;;5051389;28;20628;-68
2022/05/06 04:56:23;;;;;;;5.00;4.80;;;9.80;99.90;;;;;;5064471;28;20178;-68
2022/05/06 04:58:48;;;;;;;4.67;4.47;;;9.90;99.90;;;;;;5071138;28;20186;-68
2022/05/06 05:01:14;;;;;;;4.73;4.53;;;9.90;99.90;;;;;;5031343;28;20182;-68
2022/05/06 05:03:39;;;;;;;5.53;5.23;;;9.90;99.90;;;;;;5031441;28;20180;-68
2022/05/06 05:06:07;;;;;;;5.03;4.83;;;9.90;99.90;;;;;;5056777;28;20175;-68
2022/05/06 05:08:33;;;;;;;4.93;4.73;;;10.00;99.90;;;;;;5051242;28;20191;-69
2022/05/06 05:11:02;;;;;;;5.40;5.20;;;10.00;99.90;;;;;;5062694;28;20218;-68
2022/05/06 05:13:31;;;;;;;4.90;4.70;;;10.10;99.90;;;;;;5071103;28;20219;-68
2022/05/06 05:15:57;;;;;;;5.83;5.53;;;10.20;99.90;;;;;;5068268;28;20178;-67
2022/05/06 05:18:22;;;;;;;5.10;4.90;;;10.20;99.90;;;;;;5068833;28;20670;-67
2022/05/06 05:20:48;;;;;;;5.67;5.37;;;10.30;99.90;;;;;;5070298;28;20334;-68
2022/05/06 05:23:13;;;;;;;5.87;5.57;;;10.40;99.90;;;;;;5071047;28;20174;-69
2022/05/06 05:25:39;;;;;;;4.80;4.60;;;10.40;99.90;;;;;;5058628;28;20671;-68
2022/05/06 05:28:05;;;;;;;6.30;5.87;;;10.50;99.90;;;;;;5053328;28;20202;-67
2022/05/06 05:30:30;;;;;;;5.17;4.97;;;10.70;99.90;;;;;;5065090;28;20678;-67
2022/05/06 05:32:57;;;;;;;4.30;4.10;;;10.80;99.90;;;;;;5074939;28;20178;-69
2022/05/06 05:35:23;;;;;;;4.83;4.63;;;11.00;99.90;;;;;;5065526;28;20261;-68
2022/05/06 05:37:48;;;;;;;4.70;4.50;;;11.20;99.90;;;;;;5053424;28;20297;-68
2022/05/06 05:40:14;;;;;;;3.90;3.80;;;11.50;99.90;;;;;;5062012;28;20178;-68
2022/05/06 05:42:39;;;;;;;4.93;4.73;;;11.70;99.90;;;;;;5074640;28;20655;-67
2022/05/06 05:50:35;;;;;;;4.83;4.63;;;12.40;99.90;;;;;;5064169;28;20221;-68
2022/05/06 05:53:02;;;;;;;4.07;3.93;;;12.60;99.90;;;;;;5074871;28;20257;-68
2022/05/06 05:55:27;;;;;;;4.53;4.33;;;12.90;99.90;;;;;;5062654;28;20234;-68
2022/05/06 05:57:53;;;;;;;4.87;4.67;;;13.20;99.90;;;;;;5054036;28;20621;-69
2022/05/06 06:00:18;;;;;;;3.93;3.83;;;13.50;99.90;;;;;;5069006;28;20264;-69
2022/05/06 06:02:44;;;;;;;5.07;4.87;;;13.80;99.90;;;;;;5074646;28;20649;-68
2022/05/06 06:05:10;;;;;;;4.50;4.30;;;14.10;99.90;;;;;;5064347;28;20182;-68
2022/05/06 06:07:35;;;;;;;4.47;4.27;;;14.40;99.90;;;;;;5071714;28;20207;-67
2022/05/06 06:10:01;;;;;;;4.50;4.30;;;14.70;99.90;;;;;;5072339;28;20206;-68
2022/05/06 06:12:26;;;;;;;6.17;5.87;;;15.00;99.90;;;;;;5073771;28;20232;-68
2022/05/06 06:14:55;;;;;;;4.63;4.43;;;15.40;99.90;;;;;;5054229;28;20541;-67
2022/05/06 06:17:22;;;;;;;4.13;3.93;;;15.80;99.90;;;;;;5054200;28;20167;-68
2022/05/06 06:19:48;;;;;;;4.37;4.17;;;16.10;99.90;;;;;;5071997;28;20759;-69
2022/05/06 06:22:13;;;;;;;4.83;4.63;;;16.30;99.90;;;;;;5074092;28;20179;-69
2022/05/06 06:24:39;;;;;;;7.57;7.27;;;16.60;99.90;;;;;;5056099;28;20182;-69
2022/05/06 06:27:04;;;;;;;5.17;4.87;;;16.90;99.90;;;;;;5054277;28;20171;-68
2022/05/06 06:29:35;;;;;;;4.97;4.77;;;17.20;99.90;;;;;;5069513;28;20209;-68
2022/05/06 06:32:00;;;;;;;9.33;8.93;;;17.60;99.90;;;;;;5033586;28;20189;-68
2022/05/06 06:34:26;;;;;;;6.03;5.73;;;17.80;99.90;;;;;;5065204;28;20604;-68
2022/05/06 06:36:51;;;;;;;3.80;3.60;;;18.00;99.90;;;;;;5073736;28;20253;-68
2022/05/06 06:39:17;;;;;;;4.90;4.70;;;18.30;99.90;;;;;;5058426;28;20214;-68
2022/05/06 06:41:43;;;;;;;5.13;4.93;;;18.50;99.90;;;;;;5053563;28;20625;-68
2022/05/06 06:44:08;;;;;;;9.07;8.57;;;18.80;99.90;;;;;;5066174;28;20666;-68
2022/05/06 06:46:34;;;;;;;6.15;5.90;;;19.30;99.90;;;;;;5073460;28;20182;-68
2022/05/06 06:48:59;;;;;;;5.95;5.70;;;19.80;99.90;;;;;;5061138;28;20202;-68
2022/05/06 06:51:25;;;;;;;4.55;4.35;;;20.20;99.90;;;;;;5053723;28;20171;-67
2022/05/06 06:53:53;;;;;;;3.95;3.75;;;20.20;99.90;;;;;;5063380;28;20544;-68
2022/05/06 06:56:20;;;;;;;3.53;3.42;;;20.50;99.90;;;;;;5073217;28;20167;-68
2022/05/06 06:58:45;;;;;;;4.05;3.85;;;20.80;99.90;;;;;;5063416;28;20195;-68
2022/05/06 07:01:11;;;;;;;3.08;2.97;;;21.20;99.90;;;;;;5052059;28;20332;-68
2022/05/06 07:03:37;;;;;;;4.20;4.00;;;21.30;99.90;;;;;;5070761;28;20182;-68
2022/05/06 07:14:15;;;;;;;3.63;3.03;;;22.60;99.90;;;;;;5033120;28;20485;-66
2022/05/06 07:16:41;;;;;;;3.88;3.60;;;22.50;99.90;;;;;;5033266;28;20171;-68
2022/05/06 07:19:06;;;;;;;3.13;3.03;;;22.50;99.90;;;;;;5072665;28;20567;-67
2022/05/06 07:21:32;;;;;;;2.95;2.85;;;22.70;99.90;;;;;;5072906;28;20790;-67
2022/05/06 07:23:58;;;;;;;2.78;2.67;;;22.80;99.90;;;;;;5071029;28;20258;-66
2022/05/06 07:26:24;;;;;;;7.85;4.38;;;23.00;99.90;;;;;;5072526;28;20166;-66
2022/05/06 07:28:49;;;;;;;3.40;3.20;;;23.10;99.90;;;;;;5056406;28;20738;-66
2022/05/06 07:31:15;;;;;;;2.88;2.78;;;23.20;99.90;;;;;;5068072;28;20289;-65
2022/05/06 07:33:40;;;;;;;3.55;3.35;;;23.10;99.90;;;;;;5052850;28;20637;-66
2022/05/06 07:36:06;;;;;;;2.58;2.47;;;23.00;99.90;;;;;;5054328;28;21320;-66
2022/05/06 07:38:32;;;;;;;3.47;3.28;;;23.30;99.90;;;;;;5071293;28;20261;-68
2022/05/06 07:40:59;;;;;;;4.13;3.92;;;23.20;99.90;;;;;;5071711;28;20232;-66
2022/05/06 07:43:25;;;;;;;3.55;3.35;;;23.00;99.90;;;;;;5072003;28;20517;-66
2022/05/06 07:45:50;;;;;;;3.33;3.10;;;23.10;99.90;;;;;;5072481;28;20204;-65
2022/05/06 07:48:18;;;;;;;3.17;3.08;;;23.20;99.90;;;;;;5051521;28;20210;-65
2022/05/06 07:50:44;;;;;;;3.35;3.20;;;23.20;99.90;;;;;;5051670;28;20656;-66
2022/05/06 07:53:14;;;;;;;4.00;3.80;;;23.30;99.90;;;;;;5069826;28;20209;-66
2022/05/06 07:55:40;;;;;;;3.38;3.20;;;23.50;99.90;;;;;;5087550;28;20204;-66
2022/05/06 07:58:05;;;;;;;3.50;3.33;;;23.50;99.90;;;;;;5055118;28;20665;-66
2022/05/06 08:00:31;;;;;;;4.07;3.88;;;23.50;99.90;;;;;;5052379;28;20182;-66
2022/05/06 08:05:44;;;;;;;3.70;3.50;;;23.90;99.90;;;;;;5071716;28;20192;-67
2022/05/06 08:08:09;;;;;;;3.05;2.95;;;24.50;99.90;;;;;;5055429;28;20210;-66
2022/05/06 08:10:35;;;;;;;3.47;3.17;;;24.30;99.90;;;;;;5051848;28;20598;-65
2022/05/06 08:13:01;;;;;;;19.50;3.50;;;24.30;99.90;;;;;;5065863;28;20184;-66
2022/05/06 08:15:28;;;;;;;4.03;3.63;;;24.50;99.90;;;;;;5071676;28;20257;-66
2022/05/06 08:17:53;;;;;;;3.40;3.15;;;25.10;99.90;;;;;;5058704;28;20202;-66
2022/05/06 08:20:19;;;;;;;3.90;3.70;;;25.40;99.90;;;;;;5051703;28;20183;-66
2022/05/06 08:22:44;;;;;;;4.80;4.25;;;25.60;99.90;;;;;;5062436;28;20705;-66
2022/05/06 08:25:11;;;;;;;2.65;2.55;;;25.60;99.90;;;;;;5062552;28;20175;-67
2022/05/06 08:27:42;;;;;;;2.88;2.72;;;25.60;99.90;;;;;;5051864;28;20197;-66
2022/05/06 08:30:09;;;;;;;2.70;2.60;;;25.50;99.90;;;;;;5058778;28;20272;-66
2022/05/06 08:32:35;;;;;;;2.95;2.75;;;25.70;99.90;;;;;;5071464;28;20178;-66
2022/05/06 08:35:00;;;;;;;3.45;3.25;;;26.20;99.90;;;;;;5064916;28;20543;-66
2022/05/06 08:37:26;;;;;;;6.22;4.70;;;26.40;99.90;;;;;;5051340;28;20240;-66
2022/05/06 08:39:52;;;;;;;2.75;2.65;;;26.80;99.90;;;;;;5055367;28;20174;-66
2022/05/06 08:42:21;;;;;;;4.15;3.95;;;27.00;99.90;;;;;;5071238;28;20256;-66
2022/05/06 08:53:03;;;;;;;4.35;4.13;;;26.70;99.90;;;;;;5051185;28;20182;-67
2022/05/06 08:55:29;;;;;;;4.93;3.22;;;26.30;99.90;;;;;;5057216;28;20635;-67
2022/05/06 08:57:55;;;;;;;4.70;2.70;;;26.00;99.90;;;;;;5070979;28;20248;-67
2022/05/06 09:00:25;;;;;;;4.45;3.10;;;26.30;99.90;;;;;;5064855;28;20206;-67
2022/05/06 09:02:53;;;;;;;3.72;3.42;;;26.50;99.90;;;;;;5051226;28;20260;-67
2022/05/06 09:05:20;;;;;;;3.55;3.03;;;26.70;99.90;;;;;;5055759;28;20228;-67
2022/05/06 09:08:02;;;;;;;3.20;3.00;;;26.80;99.90;;;;;;5071197;28;20186;-67
2022/05/06 09:10:29;;;;;;;2.85;2.65;;;27.10;99.90;;;;;;5068382;28;20534;-67
2022/05/06 09:12:57;;;;;;;3.05;2.90;;;26.90;99.90;;;;;;5060968;28;20212;-67
2022/05/06 09:18:09;;;;;;;3.08;2.97;;;27.00;99.90;;;;;;5070512;28;20204;-67
2022/05/06 09:20:36;;;;;;;4.05;3.65;;;27.30;99.90;;;;;;5071276;28;20730;-67
2022/05/06 09:23:27;;;;;;;2.92;2.80;;;26.90;99.90;;;;;;5065896;28;20183;-66
2022/05/06 09:25:54;;;;;;;3.67;3.45;;;26.80;99.90;;;;;;5049234;28;20185;-67
2022/05/06 09:28:24;;;;;;;2.38;2.28;;;26.80;99.90;;;;;;5057484;28;20214;-66
2022/05/06 09:31:08;;;;;;;2.13;2.03;;;27.20;99.90;;;;;;5070901;28;20198;-66
2022/05/06 09:33:41;;;;;;;3.03;2.92;;;27.60;99.90;;;;;;5061252;28;20186;-66
2022/05/06 09:36:29;;;;;;;3.17;2.97;;;27.70;99.90;;;;;;5049064;28;20171;-67
2022/05/06 09:39:01;;;;;;;2.97;2.88;;;27.40;99.90;;;;;;5061439;28;20202;-68
2022/05/06 09:41:26;;;;;;;3.55;3.33;;;27.10;99.90;;;;;;5071364;28;20258;-67
2022/05/06 09:44:02;;;;;;;2.53;2.42;;;27.20;99.90;;;;;;5069295;28;20336;-67
2022/05/06 09:46:28;;;;;;;3.92;3.40;;;27.60;99.90;;;;;;5070772;28;20170;-68
2022/05/06 09:48:58;;;;;;;3.25;3.08;;;27.70;99.90;;;;;;5061472;28;20191;-68
2022/05/06 09:51:26;;;;;;;3.35;3.20;;;27.40;99.90;;;;;;5051153;28;20713;-67
2022/05/06 09:53:52;;;;;;;2.92;2.80;;;27.50;99.90;;;;;;5059034;28;20170;-68
2022/05/06 09:56:20;;;;;;;4.25;4.05;;;27.20;99.90;;;;;;5069964;28;20277;-67
2022/05/06 09:58:46;;;;;;;2.80;2.70;;;27.40;99.90;;;;;;5071073;28;20678;-68
2022/05/06 10:01:13;;;;;;;2.55;2.45;;;27.60;99.90;;;;;;5068894;28;20746;-67
2022/05/06 10:03:39;;;;;;;3.30;3.10;;;27.80;99.90;;;;;;5050994;28;20177;-68
2022/05/06 10:06:09;;;;;;;2.78;2.58;;;28.20;99.90;;;;;;5059422;28;20730;-68
2022/05/06 10:08:47;;;;;;;3.88;3.58;;;28.00;99.90;;;;;;5086504;28;20190;-68
2022/05/06 10:11:18;;;;;;;2.67;2.47;;;28.30;99.90;;;;;;5061250;28;20289;-68
2022/05/06 10:13:46;;;;;;;2.40;2.20;;;28.40;99.90;;;;;;5052846;28;20171;-68
2022/05/06 10:16:12;;;;;;;3.65;3.35;;;28.80;99.90;;;;;;5063032;28;20613;-68
2022/05/06 10:18:42;;;;;;;11.38;10.75;;;29.20;99.90;;;;;;5074526;28;20189;-67
2022/05/06 10:21:08;;;;;;;3.03;2.90;;;29.60;99.50;;;;;;5066740;28;20185;-67
2022/05/06 10:23:54;;;;;;;3.45;3.22;;;29.80;96.90;;;;;;5054491;28;20175;-68
2022/05/06 10:26:40;;;;;;;2.88;2.78;;;28.90;96.10;;;;;;5062834;28;20349;-68
2022/05/06 10:34:57;;;;;;;3.03;2.92;;;27.70;97.00;;;;;;5054337;28;20189;-67
2022/05/06 10:37:26;;;;;;;2.92;2.83;;;27.70;99.40;;;;;;5055140;28;20203;-67
2022/05/06 10:39:52;;;;;;;3.30;3.20;;;28.40;98.00;;;;;;5054381;28;20200;-67
2022/05/06 10:42:30;;;;;;;10.38;3.33;;;28.90;98.50;;;;;;5084566;28;20173;-67
2022/05/06 10:44:56;;;;;;;3.22;3.03;;;29.30;97.40;;;;;;5090943;28;20177;-67
2022/05/06 10:47:22;;;;;;;4.00;3.70;;;29.30;95.70;;;;;;5076452;28;20194;-66
2022/05/06 10:49:52;;;;;;;2.92;2.83;;;29.20;95.10;;;;;;5067963;28;20540;-67
2022/05/06 10:54:48;;;;;;;2.38;2.28;;;29.30;94.40;;;;;;5074076;28;20170;-68
2022/05/06 10:57:18;;;;;;;2.60;2.50;;;29.50;95.10;;;;;;5061850;28;20244;-67
2022/05/06 10:59:48;;;;;;;2.90;2.80;;;30.00;92.40;;;;;;5053875;28;20178;-67
2022/05/06 11:02:14;;;;;;;2.22;2.13;;;30.30;92.20;;;;;;5064033;28;20186;-68
2022/05/06 11:04:43;;;;;;;3.17;2.17;;;30.10;92.00;;;;;;5065459;28;20229;-67
2022/05/06 11:07:13;;;;;;;2.78;2.67;;;30.30;93.60;;;;;;5053439;28;20171;-67
2022/05/06 11:09:38;;;;;;;3.63;3.00;;;29.80;91.90;;;;;;5059507;28;20209;-67
2022/05/06 11:12:05;;;;;;;4.18;2.22;;;29.60;91.90;;;;;;5073585;28;20253;-68
2022/05/06 11:14:30;;;;;;;7.45;3.03;;;29.50;94.30;;;;;;5067895;28;20175;-67
2022/05/06 11:17:18;;;;;;;2.70;2.38;;;29.40;92.20;;;;;;5053775;28;20254;-67
2022/05/06 11:19:44;;;;;;;2.30;2.20;;;29.30;92.50;;;;;;5058524;28;20228;-68
2022/05/06 11:22:10;;;;;;;2.50;2.38;;;29.40;93.30;;;;;;5073481;28;20227;-68
2022/05/06 11:24:36;;;;;;;2.58;2.47;;;29.80;95.20;;;;;;5067336;28;20185;-68
2022/05/06 11:27:13;;;;;;;3.60;3.35;;;29.80;90.90;;;;;;5056203;28;20174;-65
2022/05/06 11:29:48;;;;;;;2.55;2.45;;;28.30;89.20;;;;;;5073050;28;20335;-67
2022/05/06 11:32:14;;;;;;;2.38;2.28;;;28.00;92.50;;;;;;5068404;28;20178;-68
2022/05/06 11:34:47;;;;;;;2.90;2.80;;;27.80;91.90;;;;;;5053093;28;20170;-67
2022/05/06 11:37:23;;;;;;;2.58;2.47;;;28.10;93.50;;;;;;5054696;28;20178;-67
2022/05/06 11:39:50;;;;;;;2.33;2.17;;;28.60;94.90;;;;;;5071638;28;20174;-67
2022/05/06 11:42:23;;;;;;;2.95;2.80;;;29.30;94.20;;;;;;5069458;28;20506;-68
2022/05/06 11:47:43;;;;;;;2.13;2.03;;;30.00;90.40;;;;;;5059054;28;20263;-68
2022/05/06 11:50:09;;;;;;;2.97;2.80;;;29.50;89.00;;;;;;5071251;28;20202;-68
2022/05/06 11:52:37;;;;;;;2.80;2.70;;;28.90;92.00;;;;;;5071131;28;20224;-67
2022/05/06 11:55:04;;;;;;;3.58;3.08;;;28.60;90.60;;;;;;5087993;28;20269;-67
2022/05/06 11:57:30;;;;;;;3.10;2.90;;;28.20;90.40;;;;;;5055128;28;20186;-68
2022/05/06 11:59:56;;;;;;;2.55;2.45;;;27.50;91.70;;;;;;5052535;28;20167;-67
2022/05/06 12:02:22;;;;;;;2.33;2.22;;;26.80;92.80;;;;;;5067885;28;20590;-67
2022/05/06 12:04:48;;;;;;;2.40;2.30;;;26.50;92.80;;;;;;5076654;28;20186;-68
2022/05/06 12:07:13;;;;;;;3.03;2.83;;;26.70;93.60;;;;;;5052440;28;20236;-67
2022/05/06 12:09:43;;;;;;;3.00;2.90;;;27.10;91.70;;;;;;5061284;28;20682;-68
2022/05/06 12:12:10;;;;;;;3.22;2.90;;;27.50;93.90;;;;;;5072144;28;20167;-67
2022/05/06 12:14:37;;;;;;;3.00;2.90;;;27.30;95.20;;;;;;5064193;28;20257;-67
2022/05/06 12:17:05;;;;;;;2.72;2.63;;;27.30;95.10;;;;;;5052423;28;20174;-67
2022/05/06 12:19:38;;;;;;;2.75;2.65;;;26.90;92.30;;;;;;5058306;28;20528;-67
2022/05/06 12:22:26;;;;;;;3.30;3.10;;;26.80;91.90;;;;;;5087397;28;20178;-66
2022/05/06 12:24:57;;;;;;;2.85;2.65;;;26.60;91.60;;;;;;5063001;28;20171;-67
2022/05/06 12:27:37;;;;;;;2.75;2.65;;;26.50;90.80;;;;;;5050568;28;20179;-66
2022/05/06 12:30:03;;;;;;;2.75;2.65;;;27.10;92.30;;;;;;5060878;28;20543;-67
2022/05/06 12:32:29;;;;;;;3.28;3.08;;;27.10;93.10;;;;;;5071959;28;20227;-67
2022/05/06 12:35:21;;;;;;;2.55;2.45;;;27.60;92.70;;;;;;5063804;28;20171;-67
2022/05/06 12:37:57;;;;;;;2.38;2.28;;;27.80;93.00;;;;;;5049388;28;20680;-67
2022/05/06 12:40:30;;;;;;;3.20;3.10;;;28.00;94.80;;;;;;5061058;28;20182;-66
2022/05/06 12:43:09;;;;;;;2.88;2.60;;;27.90;91.50;;;;;;5072061;28;20166;-67
2022/05/06 12:45:36;;;;;;;3.45;3.25;;;28.10;93.30;;;;;;5069992;28;20591;-68
2022/05/06 12:50:47;;;;;;;2.25;2.15;;;27.20;92.40;;;;;;5058373;28;20205;-66
2022/05/06 12:53:12;;;;;;;3.75;3.08;;;26.40;94.20;;;;;;5065653;28;20182;-68
2022/05/06 12:55:40;;;;;;;2.42;2.33;;;26.50;94.60;;;;;;5070093;28;20620;-68
2022/05/06 12:58:06;;;;;;;3.22;3.03;;;26.70;93.80;;;;;;5071629;28;20634;-67
2022/05/06 13:00:32;;;;;;;3.00;2.85;;;26.80;92.20;;;;;;5071828;28;20212;-67
2022/05/06 13:02:58;;;;;;;2.78;2.67;;;26.90;94.10;;;;;;5071711;28;20258;-66
2022/05/06 13:05:24;;;;;;;2.42;2.33;;;27.30;92.50;;;;;;5071329;28;20756;-65
2022/05/06 13:07:50;;;;;;;3.03;2.92;;;27.10;92.40;;;;;;5087789;28;20277;-66
2022/05/06 13:10:16;;;;;;;2.85;2.75;;;26.90;92.80;;;;;;5071765;28;20240;-65
2022/05/06 13:12:41;;;;;;;2.30;2.20;;;26.50;91.70;;;;;;5071909;28;20209;-66
2022/05/06 13:15:07;;;;;;;2.20;2.10;;;26.00;91.40;;;;;;5071395;28;20166;-66
2022/05/06 13:17:33;;;;;;;2.40;2.30;;;25.90;93.40;;;;;;5071713;28;20197;-66
2022/05/06 13:19:58;;;;;;;3.53;3.15;;;26.10;94.00;;;;;;5070183;28;20551;-67
2022/05/06 13:22:25;;;;;;;3.15;3.00;;;26.40;93.30;;;;;;5071698;28;20285;-66
2022/05/06 13:24:51;;;;;;;2.97;2.88;;;26.50;93.20;;;;;;5071369;28;20240;-67
2022/05/06 13:27:16;;;;;;;3.00;2.90;;;26.50;94.60;;;;;;5071431;28;20170;-66
2022/05/06 13:29:42;;;;;;;2.50;2.40;;;26.50;92.30;;;;;;5070079;28;20223;-66
2022/05/06 13:32:08;;;;;;;2.80;2.70;;;26.90;93.90;;;;;;5071275;28;20525;-66
2022/05/06 13:34:33;;;;;;;3.25;3.05;;;27.00;91.80;;;;;;5071361;28;20623;-67
2022/05/06 13:36:59;;;;;;;2.70;2.60;;;26.80;92.90;;;;;;5070278;28;20178;-67
2022/05/06 13:39:24;;;;;;;3.08;2.97;;;27.30;95.10;;;;;;5070247;28;20214;-67
2022/05/06 13:41:50;;;;;;;2.42;2.30;;;27.70;94.70;;;;;;5071870;28;20181;-67
2022/05/06 13:44:15;;;;;;;3.15;3.05;;;28.30;91.30;;;;;;5071136;28;20292;-67